sensor_id;sensor_type;location;lat;lon;timestamp;temperature;humidity
63537;DHT22;49686;51.880;5.632;2023-09-19T00:02:26;14.80;99.90
63537;DHT22;49686;51.880;5.632;2023-09-19T00:04:54;14.80;99.90
63537;DHT22;49686;51.880;5.632;2023-09-19T00:07:21;14.70;99.90
63537;DHT22;49686;51.880;5.632;2023-09-19T00:09:47;14.70;99.90
63537;DHT22;49686;51.880;5.632;2023-09-19T00:12:14;14.70;99.90
63537;DHT22;49686;51.880;5.632;2023-09-19T00:14:41;14.70;99.90
63537;DHT22;49686;51.880;5.632;2023-09-19T00:17:08;14.70;99.90
63537;DHT22;49686;51.880;5.632;2023-09-19T00:19:35;14.70;99.90
63537;DHT22;49686;51.880;5.632;2023-09-19T00:22:03;14.70;99.90
63537;DHT22;49686;51.880;5.632;2023-09-19T00:24:30;14.70;99.90
63537;DHT22;49686;51.880;5.632;2023-09-19T00:26:57;14.70;99.90
63537;DHT22;49686;51.880;5.632;2023-09-19T00:29:25;14.70;99.90
63537;DHT22;49686;51.880;5.632;2023-09-19T00:31:51;14.70;99.90
63537;DHT22;49686;51.880;5.632;2023-09-19T00:34:18;14.70;99.90
63537;DHT22;49686;51.880;5.632;2023-09-19T00:36:45;14.70;99.90
63537;DHT22;49686;51.880;5.632;2023-09-19T00:39:14;14.70;99.90
63537;DHT22;49686;51.880;5.632;2023-09-19T00:41:40;14.60;99.90
63537;DHT22;49686;51.880;5.632;2023-09-19T00:44:07;14.60;99.90
63537;DHT22;49686;51.880;5.632;2023-09-19T00:46:34;14.60;99.90
63537;DHT22;49686;51.880;5.632;2023-09-19T00:49:01;14.50;99.90
63537;DHT22;49686;51.880;5.632;2023-09-19T00:51:28;14.50;99.90
63537;DHT22;49686;51.880;5.632;2023-09-19T00:53:55;14.50;99.90
63537;DHT22;49686;51.880;5.632;2023-09-19T00:56:23;14.50;99.90
63537;DHT22;49686;51.880;5.632;2023-09-19T00:58:50;14.50;99.90
63537;DHT22;49686;51.880;5.632;2023-09-19T01:01:17;14.50;99.90
63537;DHT22;49686;51.880;5.632;2023-09-19T01:03:45;14.50;99.90
63537;DHT22;49686;51.880;5.632;2023-09-19T01:06:12;14.60;99.90
63537;DHT22;49686;51.880;5.632;2023-09-19T01:08:38;14.60;99.90
63537;DHT22;49686;51.880;5.632;2023-09-19T01:11:11;14.60;99.90
63537;DHT22;49686;51.880;5.632;2023-09-19T01:13:49;14.60;99.90
63537;DHT22;49686;51.880;5.632;2023-09-19T01:16:26;14.60;99.90
63537;DHT22;49686;51.880;5.632;2023-09-19T01:19:06;14.50;99.90
63537;DHT22;49686;51.880;5.632;2023-09-19T01:21:42;14.50;99.90
63537;DHT22;49686;51.880;5.632;2023-09-19T01:24:42;14.50;99.90
63537;DHT22;49686;51.880;5.632;2023-09-19T01:27:30;14.50;99.90
63537;DHT22;49686;51.880;5.632;2023-09-19T01:30:10;14.50;99.90
63537;DHT22;49686;51.880;5.632;2023-09-19T01:32:40;14.50;99.90
63537;DHT22;49686;51.880;5.632;2023-09-19T01:35:07;14.50;99.90
63537;DHT22;49686;51.880;5.632;2023-09-19T01:37:34;14.50;99.90
63537;DHT22;49686;51.880;5.632;2023-09-19T01:40:03;14.50;99.90
63537;DHT22;49686;51.880;5.632;2023-09-19T01:42:35;14.50;99.90
63537;DHT22;49686;51.880;5.632;2023-09-19T01:45:17;14.50;99.90
63537;DHT22;49686;51.880;5.632;2023-09-19T01:47:52;14.40;99.90
63537;DHT22;49686;51.880;5.632;2023-09-19T01:50:21;14.30;99.90
63537;DHT22;49686;51.880;5.632;2023-09-19T01:52:57;14.30;99.90
63537;DHT22;49686;51.880;5.632;2023-09-19T01:55:26;14.20;99.90
63537;DHT22;49686;51.880;5.632;2023-09-19T01:58:01;14.20;99.90
63537;DHT22;49686;51.880;5.632;2023-09-19T02:00:29;14.10;99.90
63537;DHT22;49686;51.880;5.632;2023-09-19T02:02:59;14.00;99.90
63537;DHT22;49686;51.880;5.632;2023-09-19T02:05:26;14.00;99.90
63537;DHT22;49686;51.880;5.632;2023-09-19T02:07:53;13.90;99.90
63537;DHT22;49686;51.880;5.632;2023-09-19T02:10:20;13.90;99.90
63537;DHT22;49686;51.880;5.632;2023-09-19T02:12:47;13.90;99.90
63537;DHT22;49686;51.880;5.632;2023-09-19T02:15:14;13.80;99.90
63537;DHT22;49686;51.880;5.632;2023-09-19T02:17:46;13.80;99.90
63537;DHT22;49686;51.880;5.632;2023-09-19T02:20:13;13.70;99.90
63537;DHT22;49686;51.880;5.632;2023-09-19T02:22:40;13.70;99.90
63537;DHT22;49686;51.880;5.632;2023-09-19T02:25:08;13.70;99.90
63537;DHT22;49686;51.880;5.632;2023-09-19T02:27:36;13.60;99.90
63537;DHT22;49686;51.880;5.632;2023-09-19T02:30:04;13.60;99.90
63537;DHT22;49686;51.880;5.632;2023-09-19T02:32:31;13.50;99.90
63537;DHT22;49686;51.880;5.632;2023-09-19T02:34:59;13.50;99.90
63537;DHT22;49686;51.880;5.632;2023-09-19T02:37:26;13.60;99.90
63537;DHT22;49686;51.880;5.632;2023-09-19T02:39:53;13.50;99.90
63537;DHT22;49686;51.880;5.632;2023-09-19T02:42:20;13.50;99.90
63537;DHT22;49686;51.880;5.632;2023-09-19T02:44:47;13.50;99.90
63537;DHT22;49686;51.880;5.632;2023-09-19T02:47:13;13.50;99.90
63537;DHT22;49686;51.880;5.632;2023-09-19T02:49:40;13.40;99.90
63537;DHT22;49686;51.880;5.632;2023-09-19T02:52:08;13.40;99.90
63537;DHT22;49686;51.880;5.632;2023-09-19T02:54:35;13.40;99.90
63537;DHT22;49686;51.880;5.632;2023-09-19T02:57:02;13.30;99.90
63537;DHT22;49686;51.880;5.632;2023-09-19T02:59:29;13.30;99.90
63537;DHT22;49686;51.880;5.632;2023-09-19T03:01:58;13.20;99.90
63537;DHT22;49686;51.880;5.632;2023-09-19T03:04:25;13.20;99.90
63537;DHT22;49686;51.880;5.632;2023-09-19T03:06:51;13.20;99.90
63537;DHT22;49686;51.880;5.632;2023-09-19T03:09:20;13.10;99.90
63537;DHT22;49686;51.880;5.632;2023-09-19T03:11:46;13.10;99.90
63537;DHT22;49686;51.880;5.632;2023-09-19T03:14:13;13.10;99.90
63537;DHT22;49686;51.880;5.632;2023-09-19T03:16:40;13.10;99.90
63537;DHT22;49686;51.880;5.632;2023-09-19T03:19:07;13.10;99.90
63537;DHT22;49686;51.880;5.632;2023-09-19T03:21:33;13.10;99.90
63537;DHT22;49686;51.880;5.632;2023-09-19T03:24:00;13.10;99.90
63537;DHT22;49686;51.880;5.632;2023-09-19T03:26:28;13.20;99.90
63537;DHT22;49686;51.880;5.632;2023-09-19T03:28:55;13.10;99.90
63537;DHT22;49686;51.880;5.632;2023-09-19T03:31:22;13.00;99.90
63537;DHT22;49686;51.880;5.632;2023-09-19T03:33:49;13.00;99.90
63537;DHT22;49686;51.880;5.632;2023-09-19T03:36:16;13.00;99.90
63537;DHT22;49686;51.880;5.632;2023-09-19T03:38:42;12.90;99.90
63537;DHT22;49686;51.880;5.632;2023-09-19T03:41:09;12.90;99.90
63537;DHT22;49686;51.880;5.632;2023-09-19T03:43:37;13.00;99.90
63537;DHT22;49686;51.880;5.632;2023-09-19T03:46:05;13.00;99.90
63537;DHT22;49686;51.880;5.632;2023-09-19T03:48:32;13.00;99.90
63537;DHT22;49686;51.880;5.632;2023-09-19T03:50:59;12.90;99.90
63537;DHT22;49686;51.880;5.632;2023-09-19T03:53:26;12.90;99.90
63537;DHT22;49686;51.880;5.632;2023-09-19T03:55:52;12.90;99.90
63537;DHT22;49686;51.880;5.632;2023-09-19T03:58:19;12.90;99.90
63537;DHT22;49686;51.880;5.632;2023-09-19T04:00:48;12.80;99.90
63537;DHT22;49686;51.880;5.632;2023-09-19T04:03:14;12.90;99.90
63537;DHT22;49686;51.880;5.632;2023-09-19T04:05:41;12.80;99.90
63537;DHT22;49686;51.880;5.632;2023-09-19T04:08:08;12.80;99.90
63537;DHT22;49686;51.880;5.632;2023-09-19T04:10:35;12.90;99.90
63537;DHT22;49686;51.880;5.632;2023-09-19T04:13:02;12.90;99.90
63537;DHT22;49686;51.880;5.632;2023-09-19T04:15:29;12.90;99.90
63537;DHT22;49686;51.880;5.632;2023-09-19T04:17:57;12.90;99.90
63537;DHT22;49686;51.880;5.632;2023-09-19T04:20:24;13.00;99.90
63537;DHT22;49686;51.880;5.632;2023-09-19T04:22:51;13.00;99.90
63537;DHT22;49686;51.880;5.632;2023-09-19T04:25:18;13.00;99.90
63537;DHT22;49686;51.880;5.632;2023-09-19T04:27:45;13.10;99.90
63537;DHT22;49686;51.880;5.632;2023-09-19T04:30:11;13.10;99.90
63537;DHT22;49686;51.880;5.632;2023-09-19T04:32:38;13.10;99.90
63537;DHT22;49686;51.880;5.632;2023-09-19T04:35:08;13.20;99.90
63537;DHT22;49686;51.880;5.632;2023-09-19T04:37:37;13.20;99.90
63537;DHT22;49686;51.880;5.632;2023-09-19T04:40:05;13.20;99.90
63537;DHT22;49686;51.880;5.632;2023-09-19T04:42:32;13.20;99.90
63537;DHT22;49686;51.880;5.632;2023-09-19T04:44:59;13.20;99.90
63537;DHT22;49686;51.880;5.632;2023-09-19T04:47:26;13.20;99.90
63537;DHT22;49686;51.880;5.632;2023-09-19T04:49:53;13.10;99.90
63537;DHT22;49686;51.880;5.632;2023-09-19T04:52:21;13.10;99.90
63537;DHT22;49686;51.880;5.632;2023-09-19T04:54:48;13.10;99.90
63537;DHT22;49686;51.880;5.632;2023-09-19T04:57:14;13.00;99.90
63537;DHT22;49686;51.880;5.632;2023-09-19T04:59:41;13.00;99.90
63537;DHT22;49686;51.880;5.632;2023-09-19T05:02:08;13.00;99.90
63537;DHT22;49686;51.880;5.632;2023-09-19T05:04:35;13.00;99.90
63537;DHT22;49686;51.880;5.632;2023-09-19T05:07:02;13.00;99.90
63537;DHT22;49686;51.880;5.632;2023-09-19T05:09:31;13.10;99.90
63537;DHT22;49686;51.880;5.632;2023-09-19T05:11:58;13.10;99.90
63537;DHT22;49686;51.880;5.632;2023-09-19T05:14:25;13.10;99.90
63537;DHT22;49686;51.880;5.632;2023-09-19T05:16:52;13.10;99.90
63537;DHT22;49686;51.880;5.632;2023-09-19T05:19:19;13.10;99.90
63537;DHT22;49686;51.880;5.632;2023-09-19T05:21:46;13.10;99.90
63537;DHT22;49686;51.880;5.632;2023-09-19T05:24:12;13.10;99.90
63537;DHT22;49686;51.880;5.632;2023-09-19T05:26:40;13.10;99.90
63537;DHT22;49686;51.880;5.632;2023-09-19T05:29:07;13.10;99.90
63537;DHT22;49686;51.880;5.632;2023-09-19T05:31:34;13.20;99.90
63537;DHT22;49686;51.880;5.632;2023-09-19T05:34:01;13.20;99.90
63537;DHT22;49686;51.880;5.632;2023-09-19T05:36:28;13.20;99.90
63537;DHT22;49686;51.880;5.632;2023-09-19T05:38:54;13.20;99.90
63537;DHT22;49686;51.880;5.632;2023-09-19T05:41:21;13.30;99.90
63537;DHT22;49686;51.880;5.632;2023-09-19T05:43:50;13.30;99.90
63537;DHT22;49686;51.880;5.632;2023-09-19T05:46:17;13.40;99.90
63537;DHT22;49686;51.880;5.632;2023-09-19T05:48:44;13.30;99.90
63537;DHT22;49686;51.880;5.632;2023-09-19T05:51:11;13.30;99.90
63537;DHT22;49686;51.880;5.632;2023-09-19T05:53:37;13.30;99.90
63537;DHT22;49686;51.880;5.632;2023-09-19T05:56:05;13.30;99.90
63537;DHT22;49686;51.880;5.632;2023-09-19T05:58:31;13.40;99.90
63537;DHT22;49686;51.880;5.632;2023-09-19T06:00:59;13.40;99.90
63537;DHT22;49686;51.880;5.632;2023-09-19T06:03:26;13.40;99.90
63537;DHT22;49686;51.880;5.632;2023-09-19T06:05:53;13.50;99.90
63537;DHT22;49686;51.880;5.632;2023-09-19T06:08:20;13.50;99.90
63537;DHT22;49686;51.880;5.632;2023-09-19T06:10:47;13.60;99.90
63537;DHT22;49686;51.880;5.632;2023-09-19T06:13:14;13.60;99.90
63537;DHT22;49686;51.880;5.632;2023-09-19T06:15:40;13.60;99.90
63537;DHT22;49686;51.880;5.632;2023-09-19T06:18:11;13.70;99.90
63537;DHT22;49686;51.880;5.632;2023-09-19T06:20:38;13.70;99.90
63537;DHT22;49686;51.880;5.632;2023-09-19T06:23:05;13.70;99.90
63537;DHT22;49686;51.880;5.632;2023-09-19T06:25:31;13.80;99.90
63537;DHT22;49686;51.880;5.632;2023-09-19T06:27:58;13.80;99.90
63537;DHT22;49686;51.880;5.632;2023-09-19T06:30:25;13.80;99.90
63537;DHT22;49686;51.880;5.632;2023-09-19T06:32:56;13.90;99.90
63537;DHT22;49686;51.880;5.632;2023-09-19T06:35:24;14.00;99.90
63537;DHT22;49686;51.880;5.632;2023-09-19T06:37:51;14.00;99.90
63537;DHT22;49686;51.880;5.632;2023-09-19T06:40:18;14.10;99.90
63537;DHT22;49686;51.880;5.632;2023-09-19T06:42:46;14.10;99.90
63537;DHT22;49686;51.880;5.632;2023-09-19T06:45:14;14.20;99.90
63537;DHT22;49686;51.880;5.632;2023-09-19T06:47:41;14.20;99.90
63537;DHT22;49686;51.880;5.632;2023-09-19T06:50:08;14.20;99.90
63537;DHT22;49686;51.880;5.632;2023-09-19T06:52:36;14.30;99.90
63537;DHT22;49686;51.880;5.632;2023-09-19T06:55:04;14.30;99.90
63537;DHT22;49686;51.880;5.632;2023-09-19T06:57:31;14.30;99.90
63537;DHT22;49686;51.880;5.632;2023-09-19T06:59:57;14.40;99.90
63537;DHT22;49686;51.880;5.632;2023-09-19T07:02:24;14.50;99.90
63537;DHT22;49686;51.880;5.632;2023-09-19T07:04:51;14.50;99.90
63537;DHT22;49686;51.880;5.632;2023-09-19T07:07:18;14.60;99.90
63537;DHT22;49686;51.880;5.632;2023-09-19T07:09:46;14.60;99.90
63537;DHT22;49686;51.880;5.632;2023-09-19T07:12:13;14.70;99.90
63537;DHT22;49686;51.880;5.632;2023-09-19T07:14:40;14.70;99.90
63537;DHT22;49686;51.880;5.632;2023-09-19T07:17:06;14.90;99.90
63537;DHT22;49686;51.880;5.632;2023-09-19T07:19:33;15.00;99.90
63537;DHT22;49686;51.880;5.632;2023-09-19T07:22:00;14.90;99.90
63537;DHT22;49686;51.880;5.632;2023-09-19T07:24:27;15.00;99.90
63537;DHT22;49686;51.880;5.632;2023-09-19T07:26:55;15.00;99.90
63537;DHT22;49686;51.880;5.632;2023-09-19T07:29:22;15.10;99.90
63537;DHT22;49686;51.880;5.632;2023-09-19T07:31:49;15.30;99.90
63537;DHT22;49686;51.880;5.632;2023-09-19T07:34:16;15.40;99.90
63537;DHT22;49686;51.880;5.632;2023-09-19T07:36:43;15.60;99.90
63537;DHT22;49686;51.880;5.632;2023-09-19T07:39:09;15.50;99.90
63537;DHT22;49686;51.880;5.632;2023-09-19T07:41:49;15.60;99.90
63537;DHT22;49686;51.880;5.632;2023-09-19T07:44:17;15.40;99.90
63537;DHT22;49686;51.880;5.632;2023-09-19T07:46:44;15.40;99.90
63537;DHT22;49686;51.880;5.632;2023-09-19T07:49:11;15.60;99.90
63537;DHT22;49686;51.880;5.632;2023-09-19T07:51:38;15.60;99.90
63537;DHT22;49686;51.880;5.632;2023-09-19T07:54:05;15.80;99.90
63537;DHT22;49686;51.880;5.632;2023-09-19T07:56:32;16.00;99.90
63537;DHT22;49686;51.880;5.632;2023-09-19T07:58:59;15.90;99.90
63537;DHT22;49686;51.880;5.632;2023-09-19T08:01:27;16.00;99.90
63537;DHT22;49686;51.880;5.632;2023-09-19T08:03:54;16.20;99.90
63537;DHT22;49686;51.880;5.632;2023-09-19T08:06:21;16.10;99.90
63537;DHT22;49686;51.880;5.632;2023-09-19T08:08:50;16.00;99.90
63537;DHT22;49686;51.880;5.632;2023-09-19T08:11:17;16.00;99.90
63537;DHT22;49686;51.880;5.632;2023-09-19T08:13:44;16.00;99.90
63537;DHT22;49686;51.880;5.632;2023-09-19T08:16:11;16.10;99.90
63537;DHT22;49686;51.880;5.632;2023-09-19T08:18:39;16.10;99.90
63537;DHT22;49686;51.880;5.632;2023-09-19T08:21:06;16.10;99.90
63537;DHT22;49686;51.880;5.632;2023-09-19T08:23:33;16.00;99.90
63537;DHT22;49686;51.880;5.632;2023-09-19T08:26:00;16.10;99.90
63537;DHT22;49686;51.880;5.632;2023-09-19T08:28:27;16.10;99.90
63537;DHT22;49686;51.880;5.632;2023-09-19T08:30:54;16.40;99.90
63537;DHT22;49686;51.880;5.632;2023-09-19T08:33:21;16.40;99.90
63537;DHT22;49686;51.880;5.632;2023-09-19T08:35:49;16.60;99.90
63537;DHT22;49686;51.880;5.632;2023-09-19T08:38:16;16.60;99.90
63537;DHT22;49686;51.880;5.632;2023-09-19T08:40:44;16.80;99.90
63537;DHT22;49686;51.880;5.632;2023-09-19T08:43:10;16.70;99.90
63537;DHT22;49686;51.880;5.632;2023-09-19T08:45:37;16.90;99.90
63537;DHT22;49686;51.880;5.632;2023-09-19T08:48:17;16.90;99.90
63537;DHT22;49686;51.880;5.632;2023-09-19T08:50:50;17.00;99.90
63537;DHT22;49686;51.880;5.632;2023-09-19T08:53:22;17.20;99.90
63537;DHT22;49686;51.880;5.632;2023-09-19T08:55:52;17.00;99.90
63537;DHT22;49686;51.880;5.632;2023-09-19T08:58:19;17.10;99.90
63537;DHT22;49686;51.880;5.632;2023-09-19T09:00:51;17.20;99.90
63537;DHT22;49686;51.880;5.632;2023-09-19T09:03:20;17.40;99.90
63537;DHT22;49686;51.880;5.632;2023-09-19T09:05:49;17.40;99.90
63537;DHT22;49686;51.880;5.632;2023-09-19T09:08:17;17.40;99.90
63537;DHT22;49686;51.880;5.632;2023-09-19T09:10:45;17.50;99.90
63537;DHT22;49686;51.880;5.632;2023-09-19T09:13:12;17.30;99.90
63537;DHT22;49686;51.880;5.632;2023-09-19T09:15:41;17.40;99.90
63537;DHT22;49686;51.880;5.632;2023-09-19T09:18:08;17.40;99.90
63537;DHT22;49686;51.880;5.632;2023-09-19T09:20:35;17.40;99.90
63537;DHT22;49686;51.880;5.632;2023-09-19T09:23:04;17.50;99.90
63537;DHT22;49686;51.880;5.632;2023-09-19T09:25:50;17.60;99.90
63537;DHT22;49686;51.880;5.632;2023-09-19T09:28:20;17.70;99.90
63537;DHT22;49686;51.880;5.632;2023-09-19T09:30:46;17.80;99.90
63537;DHT22;49686;51.880;5.632;2023-09-19T09:33:14;18.00;99.90
63537;DHT22;49686;51.880;5.632;2023-09-19T09:35:49;18.20;99.90
63537;DHT22;49686;51.880;5.632;2023-09-19T09:38:17;18.40;99.90
63537;DHT22;49686;51.880;5.632;2023-09-19T09:40:48;18.10;99.90
63537;DHT22;49686;51.880;5.632;2023-09-19T09:43:29;18.30;99.90
63537;DHT22;49686;51.880;5.632;2023-09-19T09:46:11;18.40;99.90
63537;DHT22;49686;51.880;5.632;2023-09-19T09:48:38;18.30;99.90
63537;DHT22;49686;51.880;5.632;2023-09-19T09:51:05;18.20;99.90
63537;DHT22;49686;51.880;5.632;2023-09-19T09:53:33;18.40;99.90
63537;DHT22;49686;51.880;5.632;2023-09-19T09:56:02;18.20;99.90
63537;DHT22;49686;51.880;5.632;2023-09-19T09:58:29;18.20;99.90
63537;DHT22;49686;51.880;5.632;2023-09-19T10:00:56;18.20;99.90
63537;DHT22;49686;51.880;5.632;2023-09-19T10:03:34;18.40;99.90
63537;DHT22;49686;51.880;5.632;2023-09-19T10:06:01;18.60;99.90
63537;DHT22;49686;51.880;5.632;2023-09-19T10:08:28;18.50;99.90
63537;DHT22;49686;51.880;5.632;2023-09-19T10:10:56;18.60;99.90
63537;DHT22;49686;51.880;5.632;2023-09-19T10:13:25;18.30;99.90
63537;DHT22;49686;51.880;5.632;2023-09-19T10:15:56;18.60;99.90
63537;DHT22;49686;51.880;5.632;2023-09-19T10:18:26;18.60;99.90
63537;DHT22;49686;51.880;5.632;2023-09-19T10:20:56;18.60;99.90
63537;DHT22;49686;51.880;5.632;2023-09-19T10:23:24;19.00;99.90
63537;DHT22;49686;51.880;5.632;2023-09-19T10:25:52;19.10;99.90
63537;DHT22;49686;51.880;5.632;2023-09-19T10:28:21;18.80;99.90
63537;DHT22;49686;51.880;5.632;2023-09-19T10:30:49;18.80;99.90
63537;DHT22;49686;51.880;5.632;2023-09-19T10:33:18;19.00;99.90
63537;DHT22;49686;51.880;5.632;2023-09-19T10:35:47;19.20;99.90
63537;DHT22;49686;51.880;5.632;2023-09-19T10:38:18;19.30;99.90
63537;DHT22;49686;51.880;5.632;2023-09-19T10:40:49;19.20;99.90
63537;DHT22;49686;51.880;5.632;2023-09-19T10:43:17;19.50;99.90
63537;DHT22;49686;51.880;5.632;2023-09-19T10:45:46;19.30;99.90
63537;DHT22;49686;51.880;5.632;2023-09-19T10:48:13;18.90;99.90
63537;DHT22;49686;51.880;5.632;2023-09-19T10:50:45;18.70;99.90
63537;DHT22;49686;51.880;5.632;2023-09-19T10:53:13;18.90;99.90
63537;DHT22;49686;51.880;5.632;2023-09-19T10:55:42;19.00;99.90
63537;DHT22;49686;51.880;5.632;2023-09-19T10:58:25;19.00;99.90
63537;DHT22;49686;51.880;5.632;2023-09-19T11:00:55;19.10;99.90
63537;DHT22;49686;51.880;5.632;2023-09-19T11:03:22;19.40;99.90
63537;DHT22;49686;51.880;5.632;2023-09-19T11:06:01;19.60;99.90
63537;DHT22;49686;51.880;5.632;2023-09-19T11:08:28;19.20;99.90
63537;DHT22;49686;51.880;5.632;2023-09-19T11:10:55;19.20;99.90
63537;DHT22;49686;51.880;5.632;2023-09-19T11:13:25;19.40;99.90
63537;DHT22;49686;51.880;5.632;2023-09-19T11:16:19;19.70;99.90
63537;DHT22;49686;51.880;5.632;2023-09-19T11:18:52;19.90;99.90
63537;DHT22;49686;51.880;5.632;2023-09-19T11:21:53;19.70;99.90
63537;DHT22;49686;51.880;5.632;2023-09-19T11:24:31;19.60;99.90
63537;DHT22;49686;51.880;5.632;2023-09-19T11:27:12;19.30;99.90
63537;DHT22;49686;51.880;5.632;2023-09-19T11:29:40;19.30;99.90
63537;DHT22;49686;51.880;5.632;2023-09-19T11:32:08;19.40;99.90
63537;DHT22;49686;51.880;5.632;2023-09-19T11:34:42;19.10;99.90
63537;DHT22;49686;51.880;5.632;2023-09-19T11:40:26;19.70;99.90
63537;DHT22;49686;51.880;5.632;2023-09-19T11:42:53;19.80;99.90
63537;DHT22;49686;51.880;5.632;2023-09-19T11:48:26;19.60;99.90
63537;DHT22;49686;51.880;5.632;2023-09-19T11:50:53;19.70;99.90
63537;DHT22;49686;51.880;5.632;2023-09-19T11:53:21;19.60;99.90
63537;DHT22;49686;51.880;5.632;2023-09-19T11:55:49;19.50;99.90
63537;DHT22;49686;51.880;5.632;2023-09-19T11:58:17;19.70;99.90
63537;DHT22;49686;51.880;5.632;2023-09-19T12:00:45;20.10;99.90
63537;DHT22;49686;51.880;5.632;2023-09-19T12:03:12;20.30;99.90
63537;DHT22;49686;51.880;5.632;2023-09-19T12:05:41;20.20;99.90
63537;DHT22;49686;51.880;5.632;2023-09-19T12:08:08;20.20;99.90
63537;DHT22;49686;51.880;5.632;2023-09-19T12:10:45;19.90;99.90
63537;DHT22;49686;51.880;5.632;2023-09-19T12:13:16;20.10;99.90
63537;DHT22;49686;51.880;5.632;2023-09-19T12:15:43;20.30;99.90
63537;DHT22;49686;51.880;5.632;2023-09-19T12:18:10;20.40;99.90
63537;DHT22;49686;51.880;5.632;2023-09-19T12:20:45;20.60;99.90
63537;DHT22;49686;51.880;5.632;2023-09-19T12:23:16;20.30;99.90
63537;DHT22;49686;51.880;5.632;2023-09-19T12:25:43;20.30;99.90
63537;DHT22;49686;51.880;5.632;2023-09-19T12:28:10;20.10;99.90
63537;DHT22;49686;51.880;5.632;2023-09-19T12:30:37;20.00;99.90
63537;DHT22;49686;51.880;5.632;2023-09-19T12:33:04;19.90;99.90
63537;DHT22;49686;51.880;5.632;2023-09-19T12:35:32;19.40;99.90
63537;DHT22;49686;51.880;5.632;2023-09-19T12:38:00;19.20;99.90
63537;DHT22;49686;51.880;5.632;2023-09-19T12:40:27;19.00;99.90
63537;DHT22;49686;51.880;5.632;2023-09-19T12:42:57;19.00;99.90
63537;DHT22;49686;51.880;5.632;2023-09-19T12:45:24;18.90;99.90
63537;DHT22;49686;51.880;5.632;2023-09-19T12:48:19;19.00;99.90
63537;DHT22;49686;51.880;5.632;2023-09-19T12:51:00;19.00;99.90
63537;DHT22;49686;51.880;5.632;2023-09-19T12:53:28;19.00;99.90
63537;DHT22;49686;51.880;5.632;2023-09-19T12:55:58;18.90;99.90
63537;DHT22;49686;51.880;5.632;2023-09-19T12:58:25;18.90;99.90
63537;DHT22;49686;51.880;5.632;2023-09-19T13:00:52;19.10;99.90
63537;DHT22;49686;51.880;5.632;2023-09-19T13:03:26;19.10;99.90
63537;DHT22;49686;51.880;5.632;2023-09-19T13:05:55;19.10;99.90
63537;DHT22;49686;51.880;5.632;2023-09-19T13:08:28;19.20;99.90
63537;DHT22;49686;51.880;5.632;2023-09-19T13:11:02;19.10;99.90
63537;DHT22;49686;51.880;5.632;2023-09-19T13:13:30;19.00;99.90
63537;DHT22;49686;51.880;5.632;2023-09-19T13:15:57;19.00;99.90
63537;DHT22;49686;51.880;5.632;2023-09-19T13:18:24;19.30;99.90
63537;DHT22;49686;51.880;5.632;2023-09-19T13:21:05;19.30;99.90
63537;DHT22;49686;51.880;5.632;2023-09-19T13:23:33;19.20;99.90
63537;DHT22;49686;51.880;5.632;2023-09-19T13:26:00;19.00;99.90
63537;DHT22;49686;51.880;5.632;2023-09-19T13:28:27;19.00;99.90
63537;DHT22;49686;51.880;5.632;2023-09-19T13:30:54;19.00;99.90
63537;DHT22;49686;51.880;5.632;2023-09-19T13:33:21;18.90;99.90
63537;DHT22;49686;51.880;5.632;2023-09-19T13:35:48;18.90;99.90
63537;DHT22;49686;51.880;5.632;2023-09-19T13:38:15;18.90;99.90
63537;DHT22;49686;51.880;5.632;2023-09-19T13:40:43;18.90;99.90
63537;DHT22;49686;51.880;5.632;2023-09-19T13:43:10;18.90;99.90
63537;DHT22;49686;51.880;5.632;2023-09-19T13:45:36;19.10;99.90
63537;DHT22;49686;51.880;5.632;2023-09-19T13:48:04;19.20;99.90
63537;DHT22;49686;51.880;5.632;2023-09-19T13:50:31;19.30;99.90
63537;DHT22;49686;51.880;5.632;2023-09-19T13:52:58;19.30;99.90
63537;DHT22;49686;51.880;5.632;2023-09-19T13:55:25;19.50;99.90
63537;DHT22;49686;51.880;5.632;2023-09-19T13:57:53;19.60;99.90
63537;DHT22;49686;51.880;5.632;2023-09-19T14:00:20;20.00;99.90
63537;DHT22;49686;51.880;5.632;2023-09-19T14:02:47;20.00;99.90
63537;DHT22;49686;51.880;5.632;2023-09-19T14:05:14;20.10;99.90
63537;DHT22;49686;51.880;5.632;2023-09-19T14:07:41;19.90;99.90
63537;DHT22;49686;51.880;5.632;2023-09-19T14:10:11;19.60;99.90
63537;DHT22;49686;51.880;5.632;2023-09-19T14:12:38;19.50;99.90
63537;DHT22;49686;51.880;5.632;2023-09-19T14:15:07;19.50;99.90
63537;DHT22;49686;51.880;5.632;2023-09-19T14:17:34;19.50;99.90
63537;DHT22;49686;51.880;5.632;2023-09-19T14:20:01;19.60;99.90
63537;DHT22;49686;51.880;5.632;2023-09-19T14:22:29;19.50;99.90
63537;DHT22;49686;51.880;5.632;2023-09-19T14:24:57;19.60;99.90
63537;DHT22;49686;51.880;5.632;2023-09-19T14:27:24;19.70;99.90
63537;DHT22;49686;51.880;5.632;2023-09-19T14:29:51;19.60;99.90
63537;DHT22;49686;51.880;5.632;2023-09-19T14:32:20;19.50;99.90
63537;DHT22;49686;51.880;5.632;2023-09-19T14:37:25;19.20;99.90
63537;DHT22;49686;51.880;5.632;2023-09-19T14:39:52;19.30;99.90
63537;DHT22;49686;51.880;5.632;2023-09-19T14:42:18;19.20;99.90
63537;DHT22;49686;51.880;5.632;2023-09-19T14:44:45;19.10;99.90
63537;DHT22;49686;51.880;5.632;2023-09-19T14:47:12;19.10;99.90
63537;DHT22;49686;51.880;5.632;2023-09-19T14:49:39;19.20;99.90
63537;DHT22;49686;51.880;5.632;2023-09-19T14:52:07;19.10;99.90
63537;DHT22;49686;51.880;5.632;2023-09-19T14:54:36;19.10;99.90
63537;DHT22;49686;51.880;5.632;2023-09-19T14:57:03;19.20;99.90
63537;DHT22;49686;51.880;5.632;2023-09-19T14:59:30;19.10;99.90
63537;DHT22;49686;51.880;5.632;2023-09-19T15:01:57;19.00;99.90
63537;DHT22;49686;51.880;5.632;2023-09-19T15:04:24;19.10;99.90
63537;DHT22;49686;51.880;5.632;2023-09-19T15:06:51;18.90;99.90
63537;DHT22;49686;51.880;5.632;2023-09-19T15:09:18;18.90;99.90
63537;DHT22;49686;51.880;5.632;2023-09-19T15:11:46;18.90;99.90
63537;DHT22;49686;51.880;5.632;2023-09-19T15:14:13;18.80;99.90
63537;DHT22;49686;51.880;5.632;2023-09-19T15:16:40;18.80;99.90
63537;DHT22;49686;51.880;5.632;2023-09-19T15:19:07;18.80;99.90
63537;DHT22;49686;51.880;5.632;2023-09-19T15:21:33;18.80;99.90
63537;DHT22;49686;51.880;5.632;2023-09-19T15:24:00;18.80;99.90
63537;DHT22;49686;51.880;5.632;2023-09-19T15:26:27;18.80;99.90
63537;DHT22;49686;51.880;5.632;2023-09-19T15:28:55;18.80;99.90
63537;DHT22;49686;51.880;5.632;2023-09-19T15:31:22;18.70;99.90
63537;DHT22;49686;51.880;5.632;2023-09-19T15:33:49;18.60;99.90
63537;DHT22;49686;51.880;5.632;2023-09-19T15:36:16;18.60;99.90
63537;DHT22;49686;51.880;5.632;2023-09-19T15:39:07;18.60;99.90
63537;DHT22;49686;51.880;5.632;2023-09-19T15:41:35;18.60;99.90
63537;DHT22;49686;51.880;5.632;2023-09-19T15:44:04;18.60;99.90
63537;DHT22;49686;51.880;5.632;2023-09-19T15:46:32;18.60;99.90
63537;DHT22;49686;51.880;5.632;2023-09-19T15:48:59;18.60;99.90